Alpha, Idaho
Current Conditions -  °F | °C
As of 12:51 AM on Wednesday 26 Nov 2014 (Local Time) from KMYL Reporting Station
Haze Haze  
Wind Chill: 35°   Ceiling: 2600
Heat Index: 35°   Visibility: 6mi
Dew Point: 34°   Wind: 3mph
Humidity: 96%   Direction: 340°NNW
Pressure: 30.24"   Gusts: NA
Location:  44.4236°N, 115.8°W
Report Text: KMYL 260751Z AUTO 34003KT 6SM BR OVC026 02/01 A3024 RMK AO2 SLP257 T00170011
Loading
Personal Weather Stations






























Interactive Weather Map New forecast layout! Learn more

10-Day Weather Forecast

Advertisements
Track Severe Weather on mobile